createdAt,value
2018-06-13T00:02:11.115Z,1.70
2018-06-13T00:04:39.223Z,1.97
2018-06-13T00:07:07.896Z,1.63
2018-06-13T00:09:36.997Z,2.00
2018-06-13T00:12:05.283Z,2.23
2018-06-13T00:14:34.330Z,2.07
2018-06-13T00:17:03.190Z,2.20
2018-06-13T00:19:31.444Z,2.20
2018-06-13T00:21:59.719Z,2.20
2018-06-13T00:24:29.357Z,2.00
2018-06-13T00:26:58.102Z,2.00
2018-06-13T00:29:26.359Z,1.97
2018-06-13T00:31:55.502Z,1.80
2018-06-13T00:34:23.866Z,1.90
2018-06-13T00:36:52.167Z,2.13
2018-06-13T00:39:20.426Z,2.20
2018-06-13T00:41:48.510Z,1.80
2018-06-13T00:44:18.258Z,2.10
2018-06-13T00:46:46.458Z,2.10
2018-06-13T00:49:14.700Z,2.20
2018-06-13T00:51:44.405Z,2.00
2018-06-13T00:54:12.957Z,2.87
2018-06-13T00:56:41.641Z,2.30
2018-06-13T00:59:09.866Z,2.03
2018-06-13T01:01:38.002Z,2.00
2018-06-13T01:04:06.982Z,2.10
2018-06-13T01:06:35.195Z,2.40
2018-06-13T01:09:05.001Z,2.07
2018-06-13T01:11:33.175Z,1.77
2018-06-13T01:14:01.378Z,2.23
2018-06-13T01:16:29.629Z,2.10
2018-06-13T01:18:59.175Z,2.20
2018-06-13T01:21:27.497Z,1.80
2018-06-13T01:23:55.707Z,1.90
2018-06-13T01:26:23.785Z,2.00
2018-06-13T01:28:52.389Z,1.90
2018-06-13T01:31:21.583Z,1.93
2018-06-13T01:33:51.022Z,2.30
2018-06-13T01:36:23.703Z,2.27
2018-06-13T01:38:52.398Z,1.80
2018-06-13T01:41:20.491Z,1.60
2018-06-13T01:43:48.767Z,2.23
2018-06-13T01:46:17.035Z,2.00
2018-06-13T01:48:45.983Z,2.10
2018-06-13T01:51:15.019Z,1.90
2018-06-13T01:53:43.346Z,2.07
2018-06-13T01:56:12.206Z,1.93
2018-06-13T01:58:41.668Z,1.43
2018-06-13T02:01:10.259Z,1.87
2018-06-13T02:03:38.447Z,1.73
2018-06-13T02:06:06.597Z,1.60
2018-06-13T02:08:36.469Z,1.60
2018-06-13T02:11:05.201Z,1.60
2018-06-13T02:13:33.489Z,1.40
2018-06-13T02:16:01.896Z,1.57
2018-06-13T02:18:30.674Z,1.43
2018-06-13T02:20:59.430Z,1.43
2018-06-13T02:23:28.101Z,1.60
2018-06-13T02:25:57.038Z,1.80
2018-06-13T02:28:25.250Z,1.50
2018-06-13T02:30:53.452Z,1.07
2018-06-13T02:33:22.354Z,1.27
2018-06-13T02:35:52.294Z,1.20
2018-06-13T02:38:20.989Z,1.10
2018-06-13T02:40:49.135Z,1.20
2018-06-13T02:43:17.995Z,1.50
2018-06-13T02:45:46.474Z,1.10
2018-06-13T02:48:16.249Z,1.20
2018-06-13T02:50:45.891Z,1.03
2018-06-13T02:53:15.490Z,1.10
2018-06-13T02:55:44.666Z,1.00
2018-06-13T02:58:13.433Z,0.83
2018-06-13T03:00:42.037Z,1.03
2018-06-13T03:03:10.166Z,1.10
2018-06-13T03:05:38.669Z,0.90
2018-06-13T03:08:08.569Z,0.90
2018-06-13T03:10:48.489Z,1.10
2018-06-13T03:13:16.657Z,0.80
2018-06-13T03:15:45.125Z,0.80
2018-06-13T03:18:15.209Z,0.63
2018-06-13T03:20:43.422Z,0.87
2018-06-13T03:23:12.034Z,0.90
2018-06-13T03:25:40.383Z,1.10
2018-06-13T03:28:09.360Z,0.77
2018-06-13T03:30:38.037Z,0.80
2018-06-13T03:33:06.956Z,0.80
2018-06-13T03:35:35.826Z,0.80
2018-06-13T03:38:04.516Z,1.20
2018-06-13T03:40:33.930Z,1.13
2018-06-13T03:43:02.094Z,1.00
2018-06-13T03:45:30.952Z,0.90
2018-06-13T03:47:59.895Z,1.00
2018-06-13T03:50:28.753Z,0.80
2018-06-13T03:52:58.680Z,0.97
2018-06-13T03:55:26.931Z,0.87
2018-06-13T03:57:55.537Z,0.87
2018-06-13T04:00:24.962Z,0.90
2018-06-13T04:02:53.835Z,0.90
2018-06-13T04:05:23.182Z,0.90
2018-06-13T04:07:51.364Z,1.10
2018-06-13T04:10:20.334Z,1.03
2018-06-13T04:12:48.843Z,0.80
2018-06-13T04:15:17.391Z,0.90
2018-06-13T04:17:46.260Z,0.80
2018-06-13T04:20:14.383Z,0.97
2018-06-13T04:22:43.346Z,0.70
2018-06-13T04:25:12.063Z,0.80
2018-06-13T04:27:41.025Z,0.90
2018-06-13T04:30:08.946Z,0.97
2018-06-13T04:32:37.324Z,0.70
2018-06-13T04:35:06.057Z,0.80
2018-06-13T04:37:34.961Z,0.70
2018-06-13T04:40:03.280Z,0.70
2018-06-13T04:42:31.923Z,1.10
2018-06-13T04:45:00.252Z,0.77
2018-06-13T04:47:29.279Z,0.90
2018-06-13T04:49:58.270Z,0.63
2018-06-13T04:52:27.073Z,0.70
2018-06-13T04:54:55.338Z,0.90
2018-06-13T04:57:24.194Z,0.87
2018-06-13T04:59:52.755Z,1.20
2018-06-13T05:02:21.438Z,0.90
2018-06-13T05:04:50.943Z,0.80
2018-06-13T05:07:19.994Z,1.00
2018-06-13T05:09:48.780Z,0.80
2018-06-13T05:12:18.071Z,0.70
2018-06-13T05:14:47.138Z,0.80
2018-06-13T05:17:15.486Z,0.90
2018-06-13T05:19:43.749Z,0.73
2018-06-13T05:22:12.102Z,0.70
2018-06-13T05:24:40.476Z,0.70
2018-06-13T05:27:08.780Z,0.80
2018-06-13T05:29:36.942Z,0.53
2018-06-13T05:32:05.534Z,0.50
2018-06-13T05:34:33.786Z,0.57
2018-06-13T05:37:02.026Z,0.93
2018-06-13T05:39:31.322Z,0.87
2018-06-13T05:42:00.991Z,0.70
2018-06-13T05:44:29.130Z,0.83
2018-06-13T05:46:58.065Z,0.60
2018-06-13T05:49:26.890Z,0.60
2018-06-13T05:51:55.950Z,0.70
2018-06-13T05:54:25.067Z,0.57
2018-06-13T05:56:53.171Z,1.33
2018-06-13T05:59:21.328Z,0.87
2018-06-13T06:01:50.480Z,0.50
2018-06-13T06:04:18.858Z,0.60
2018-06-13T06:06:47.802Z,0.77
2018-06-13T06:09:16.907Z,0.43
2018-06-13T06:11:45.243Z,0.73
2018-06-13T06:14:13.214Z,0.73
2018-06-13T06:16:41.881Z,0.50
2018-06-13T06:19:11.865Z,0.80
2018-06-13T06:21:40.066Z,1.00
2018-06-13T06:24:08.238Z,0.70
2018-06-13T06:26:37.449Z,0.60
2018-06-13T06:29:06.270Z,0.83
2018-06-13T06:31:34.633Z,0.67
2018-06-13T06:34:03.657Z,0.50
2018-06-13T06:36:31.933Z,0.63
2018-06-13T06:39:00.123Z,0.67
2018-06-13T06:41:28.725Z,0.67
2018-06-13T06:43:57.681Z,0.50
2018-06-13T06:46:27.882Z,0.68
2018-06-13T06:48:56.568Z,0.60
2018-06-13T06:51:25.927Z,0.70
2018-06-13T06:53:55.241Z,0.60
2018-06-13T06:56:24.431Z,0.50
2018-06-13T06:58:53.432Z,0.50
2018-06-13T07:01:22.019Z,0.62
2018-06-13T07:03:50.227Z,0.62
2018-06-13T07:06:22.917Z,0.45
2018-06-13T07:08:51.873Z,0.70
2018-06-13T07:11:20.407Z,0.88
2018-06-13T07:13:49.033Z,0.40
2018-06-13T07:16:18.646Z,0.47
2018-06-13T07:18:47.461Z,0.70
2018-06-13T07:21:16.111Z,0.67
2018-06-13T07:23:45.354Z,0.35
2018-06-13T07:26:13.982Z,0.75
2018-06-13T07:28:43.829Z,0.65
2018-06-13T07:31:12.524Z,0.60
2018-06-13T07:33:41.015Z,0.70
2018-06-13T07:36:10.710Z,0.40
2018-06-13T07:38:39.443Z,0.60
2018-06-13T07:41:07.832Z,0.50
2018-06-13T07:43:37.479Z,0.50
2018-06-13T07:46:06.246Z,0.65
2018-06-13T07:48:36.917Z,0.45
2018-06-13T07:51:05.577Z,0.70
2018-06-13T07:53:34.319Z,0.40
2018-06-13T07:58:47.893Z,0.57
2018-06-13T08:01:17.150Z,0.50
2018-06-13T08:03:45.432Z,0.53
2018-06-13T08:06:13.763Z,0.75
2018-06-13T08:08:42.208Z,0.70
2018-06-13T08:11:11.635Z,0.68
2018-06-13T08:13:40.024Z,0.80
2018-06-13T08:16:08.366Z,0.65
2018-06-13T08:18:37.745Z,0.65
2018-06-13T08:21:08.016Z,0.60
2018-06-13T08:23:36.391Z,0.50
2018-06-13T08:26:05.721Z,0.70
2018-06-13T08:28:35.105Z,0.50
2018-06-13T08:32:06.444Z,0.75
2018-06-13T08:34:35.052Z,0.60
2018-06-13T08:37:03.439Z,0.62
2018-06-13T08:39:31.696Z,0.90
2018-06-13T08:42:03.485Z,0.70
2018-06-13T08:44:32.759Z,0.80
2018-06-13T08:47:05.626Z,0.90
2018-06-13T08:49:34.009Z,0.80
2018-06-13T08:52:03.222Z,0.68
2018-06-13T08:54:31.585Z,1.07
2018-06-13T08:56:59.792Z,0.65
2018-06-13T08:59:31.843Z,0.50
2018-06-13T09:02:00.135Z,0.90
2018-06-13T09:04:28.339Z,0.75
2018-06-13T09:06:56.570Z,0.40
2018-06-13T09:09:28.960Z,0.80
2018-06-13T09:11:57.159Z,0.42
2018-06-13T09:14:25.724Z,0.65
2018-06-13T09:16:53.924Z,0.68
2018-06-13T09:19:22.172Z,0.60
2018-06-13T09:21:52.522Z,0.60
2018-06-13T09:24:21.953Z,0.40
2018-06-13T09:26:50.341Z,0.50
2018-06-13T09:29:22.034Z,0.70
2018-06-13T09:31:50.340Z,0.40
2018-06-13T09:34:18.577Z,0.45
2018-06-13T09:36:46.866Z,0.42
2018-06-13T09:39:16.222Z,0.50
2018-06-13T09:41:49.935Z,0.80
2018-06-13T09:44:18.235Z,0.68
2018-06-13T09:46:48.920Z,0.45
2018-06-13T09:49:14.818Z,0.47
2018-06-13T09:51:43.238Z,0.42
2018-06-13T09:54:12.550Z,0.35
2018-06-13T09:56:42.776Z,0.50
2018-06-13T09:59:18.342Z,0.57
2018-06-13T10:01:56.229Z,0.75
2018-06-13T10:04:24.655Z,0.47
2018-06-13T10:06:52.914Z,0.70
2018-06-13T10:09:21.191Z,0.60
2018-06-13T10:11:49.505Z,0.70
2018-06-13T10:14:17.708Z,0.85
2018-06-13T10:16:46.964Z,0.40
2018-06-13T10:19:14.957Z,0.62
2018-06-13T10:21:43.208Z,0.65
2018-06-13T10:24:11.459Z,0.42
2018-06-13T10:26:39.854Z,0.45
2018-06-13T10:29:08.235Z,0.70
2018-06-13T10:31:36.497Z,0.57
2018-06-13T10:34:04.683Z,0.50
2018-06-13T10:36:32.937Z,0.70
2018-06-13T10:39:01.163Z,0.53
2018-06-13T10:41:29.286Z,0.93
2018-06-13T10:43:58.450Z,0.62
2018-06-13T10:46:26.623Z,0.50
2018-06-13T10:48:54.784Z,0.60
2018-06-13T10:51:22.968Z,0.70
2018-06-13T10:53:54.517Z,0.70
2018-06-13T10:56:23.749Z,1.00
2018-06-13T10:58:52.978Z,0.93
2018-06-13T11:01:21.140Z,1.00
2018-06-13T11:03:49.287Z,0.90
2018-06-13T11:06:17.701Z,0.68
2018-06-13T11:08:46.858Z,0.85
2018-06-13T11:11:15.049Z,1.02
2018-06-13T11:13:43.289Z,0.75
2018-06-13T11:16:11.439Z,0.95
2018-06-13T11:18:39.882Z,0.88
2018-06-13T11:21:08.454Z,1.00
2018-06-13T11:23:36.620Z,0.80
2018-06-13T11:26:06.072Z,0.90
2018-06-13T11:28:34.122Z,0.78
2018-06-13T11:31:02.365Z,1.30
2018-06-13T11:33:30.535Z,1.27
2018-06-13T11:35:58.818Z,1.00
2018-06-13T11:38:27.038Z,1.05
2018-06-13T11:40:56.347Z,1.12
2018-06-13T11:43:24.529Z,1.25
2018-06-13T11:45:52.735Z,1.00
2018-06-13T11:48:20.979Z,1.05
2018-06-13T11:50:54.532Z,0.93
2018-06-13T11:53:22.717Z,1.12
2018-06-13T11:55:50.927Z,1.12
2018-06-13T11:58:19.147Z,1.05
2018-06-13T12:00:47.317Z,1.05
2018-06-13T12:03:15.447Z,0.78
2018-06-13T12:05:44.699Z,0.80
2018-06-13T12:08:12.871Z,0.80
2018-06-13T12:10:43.034Z,1.10
2018-06-13T12:13:11.242Z,0.88
2018-06-13T12:15:39.499Z,0.90
2018-06-13T12:18:07.666Z,1.40
2018-06-13T12:20:35.835Z,1.30
2018-06-13T12:23:04.990Z,1.00
2018-06-13T12:25:33.133Z,1.07
2018-06-13T12:28:01.260Z,0.90
2018-06-13T12:30:29.471Z,1.02
2018-06-13T12:32:58.716Z,1.07
2018-06-13T12:35:26.919Z,1.05
2018-06-13T12:37:55.381Z,1.12
2018-06-13T12:40:23.769Z,1.10
2018-06-13T12:42:52.164Z,0.85
2018-06-13T12:45:20.513Z,0.90
2018-06-13T12:47:49.970Z,1.10
2018-06-13T12:50:20.168Z,1.02
2018-06-13T12:52:49.142Z,0.78
2018-06-13T12:55:17.490Z,1.10
2018-06-13T12:57:46.423Z,1.20
2018-06-13T13:00:14.796Z,0.80
2018-06-13T13:02:45.799Z,1.10
2018-06-13T13:05:14.762Z,0.93
2018-06-13T13:07:43.044Z,0.82
2018-06-13T13:10:11.379Z,1.17
2018-06-13T13:12:39.765Z,0.75
2018-06-13T13:15:10.224Z,0.75
2018-06-13T13:17:38.587Z,0.90
2018-06-13T13:20:07.035Z,0.65
2018-06-13T13:22:35.400Z,0.88
2018-06-13T13:25:04.369Z,0.93
2018-06-13T13:27:32.663Z,0.80
2018-06-13T13:30:00.978Z,0.80
2018-06-13T13:32:29.300Z,1.10
2018-06-13T13:34:57.597Z,0.95
2018-06-13T13:37:25.913Z,1.05
2018-06-13T13:39:54.226Z,0.53
2018-06-13T13:42:23.450Z,0.70
2018-06-13T13:44:55.235Z,0.75
2018-06-13T13:47:23.551Z,0.95
2018-06-13T13:49:51.801Z,0.80
2018-06-13T13:52:20.062Z,1.10
2018-06-13T13:54:48.342Z,1.00
2018-06-13T13:57:16.617Z,0.90
2018-06-13T13:59:44.898Z,1.00
2018-06-13T14:02:16.254Z,1.00
2018-06-13T14:04:45.474Z,0.88
2018-06-13T14:07:14.750Z,1.15
2018-06-13T14:09:42.918Z,0.98
2018-06-13T14:12:12.181Z,1.00
2018-06-13T14:14:40.304Z,0.75
2018-06-13T14:17:08.510Z,0.98
2018-06-13T14:19:36.737Z,0.80
2018-06-13T14:22:06.148Z,0.80
2018-06-13T14:24:34.626Z,0.90
2018-06-13T14:27:03.166Z,0.80
2018-06-13T14:29:32.453Z,0.88
2018-06-13T14:32:00.597Z,0.85
2018-06-13T14:34:30.834Z,0.93
2018-06-13T14:36:59.082Z,0.82
2018-06-13T14:39:27.428Z,0.80
2018-06-13T14:41:55.672Z,0.80
2018-06-13T14:44:24.024Z,0.75
2018-06-13T14:46:52.321Z,1.07
2018-06-13T14:49:22.327Z,0.70
2018-06-13T14:51:52.834Z,0.90
2018-06-13T14:54:21.106Z,1.05
2018-06-13T14:56:49.361Z,1.10
2018-06-13T15:01:56.729Z,1.00
2018-06-13T15:04:30.374Z,0.93
2018-06-13T15:06:58.635Z,1.17
2018-06-13T15:09:27.127Z,0.90
2018-06-13T15:11:55.425Z,0.88
2018-06-13T15:14:23.798Z,1.00
2018-06-13T15:16:52.098Z,1.30
2018-06-13T15:19:20.424Z,1.15
2018-06-13T15:21:49.335Z,1.15
2018-06-13T15:24:19.246Z,1.10
2018-06-13T15:26:47.591Z,1.15
2018-06-13T15:29:16.378Z,0.80
2018-06-13T15:31:45.692Z,1.10
2018-06-13T15:34:14.218Z,1.00
2018-06-13T15:36:44.019Z,1.10
2018-06-13T15:39:14.482Z,1.07
2018-06-13T15:41:45.742Z,0.90
2018-06-13T15:44:14.467Z,1.07
2018-06-13T15:46:42.808Z,0.98
2018-06-13T15:49:11.564Z,1.20
2018-06-13T15:51:40.021Z,1.20
2018-06-13T15:54:08.764Z,1.10
2018-06-13T15:56:37.022Z,1.17
2018-06-13T15:59:05.390Z,1.10
2018-06-13T16:01:33.778Z,0.90
2018-06-13T16:04:02.911Z,0.88
2018-06-13T16:06:31.308Z,1.17
2018-06-13T16:09:00.201Z,0.95
2018-06-13T16:11:28.509Z,1.20
2018-06-13T16:13:58.177Z,0.82
2018-06-13T16:16:26.859Z,1.57
2018-06-13T16:18:55.046Z,0.80
2018-06-13T16:21:23.293Z,1.20
2018-06-13T16:23:51.620Z,1.10
2018-06-13T16:26:20.147Z,0.93
2018-06-13T16:28:49.198Z,0.93
2018-06-13T16:31:17.458Z,1.05
2018-06-13T16:33:46.089Z,1.10
2018-06-13T16:36:15.818Z,1.20
2018-06-13T16:38:44.355Z,1.32
2018-06-13T16:41:12.847Z,1.20
2018-06-13T16:43:41.000Z,1.00
2018-06-13T16:46:09.281Z,1.10
2018-06-13T16:48:37.847Z,1.20
2018-06-13T16:51:17.548Z,0.85
2018-06-13T16:53:57.813Z,1.10
2018-06-13T16:56:26.746Z,1.17
2018-06-13T16:58:55.625Z,1.20
2018-06-13T17:01:24.404Z,1.12
2018-06-13T17:03:54.561Z,1.10
2018-06-13T17:06:23.123Z,1.07
2018-06-13T17:08:51.996Z,1.03
2018-06-13T17:11:20.600Z,1.02
2018-06-13T17:13:49.367Z,1.40
2018-06-13T17:16:18.973Z,1.12
2018-06-13T17:18:48.272Z,1.02
2018-06-13T17:21:16.436Z,1.35
2018-06-13T17:23:46.482Z,1.23
2018-06-13T17:26:25.491Z,1.10
2018-06-13T17:28:54.411Z,1.33
2018-06-13T17:31:22.697Z,1.30
2018-06-13T17:33:51.044Z,1.10
2018-06-13T17:36:19.554Z,1.30
2018-06-13T17:38:48.023Z,1.13
2018-06-13T17:41:17.302Z,1.40
2018-06-13T17:43:45.920Z,1.00
2018-06-13T17:46:19.814Z,1.40
2018-06-13T17:48:49.351Z,1.23
2018-06-13T17:51:17.573Z,1.40
2018-06-13T17:53:45.957Z,1.00
2018-06-13T17:56:17.648Z,1.00
2018-06-13T17:58:48.079Z,1.00
2018-06-13T18:01:19.521Z,1.30
2018-06-13T18:03:49.292Z,1.30
2018-06-13T18:06:17.627Z,1.33
2018-06-13T18:08:46.258Z,1.33
2018-06-13T18:11:17.154Z,1.17
2018-06-13T18:13:45.751Z,1.30
2018-06-13T18:16:34.446Z,1.30
2018-06-13T18:19:04.179Z,1.30
2018-06-13T18:21:32.719Z,1.30
2018-06-13T18:24:02.583Z,1.33
2018-06-13T18:26:31.481Z,1.17
2018-06-13T18:29:00.701Z,1.00
2018-06-13T18:31:31.546Z,1.10
2018-06-13T18:34:01.362Z,1.30
2018-06-13T18:36:31.149Z,1.40
2018-06-13T18:39:01.170Z,1.43
2018-06-13T18:41:30.986Z,1.10
2018-06-13T18:43:59.758Z,1.20
2018-06-13T18:46:30.092Z,1.40
2018-06-13T18:48:59.214Z,1.00
2018-06-13T18:51:29.393Z,1.17
2018-06-13T18:53:57.854Z,0.90
2018-06-13T18:56:26.311Z,1.37
2018-06-13T18:58:54.777Z,1.20
2018-06-13T19:01:23.315Z,1.03
2018-06-13T19:03:51.864Z,1.37
2018-06-13T19:06:20.515Z,1.17
2018-06-13T19:08:52.278Z,1.10
2018-06-13T19:11:21.112Z,1.20
2018-06-13T19:13:49.662Z,1.13
2018-06-13T19:16:17.954Z,1.67
2018-06-13T19:18:46.465Z,1.20
2018-06-13T19:21:15.247Z,1.37
2018-06-13T19:23:43.524Z,1.30
2018-06-13T19:26:13.782Z,1.17
2018-06-13T19:28:41.993Z,1.40
2018-06-13T19:31:18.696Z,1.57
2018-06-13T19:33:47.000Z,1.10
2018-06-13T19:36:15.610Z,1.10
2018-06-13T19:38:43.865Z,1.23
2018-06-13T19:41:14.797Z,1.40
2018-06-13T19:43:44.625Z,1.20
2018-06-13T19:46:15.541Z,1.00
2018-06-13T19:48:46.545Z,1.20
2018-06-13T19:51:20.518Z,1.40
2018-06-13T19:53:54.252Z,1.60
2018-06-13T19:56:30.144Z,1.10
2018-06-13T19:58:59.201Z,0.77
2018-06-13T20:01:27.514Z,1.13
2018-06-13T20:04:06.158Z,0.97
2018-06-13T20:06:38.243Z,1.40
2018-06-13T20:09:11.124Z,1.20
2018-06-13T20:11:39.617Z,1.37
2018-06-13T20:14:13.334Z,1.40
2018-06-13T20:16:49.934Z,1.10
2018-06-13T20:19:24.126Z,1.50
2018-06-13T20:21:53.156Z,1.57
2018-06-13T20:24:21.735Z,1.20
2018-06-13T20:26:55.513Z,1.47
2018-06-13T20:29:29.542Z,1.17
2018-06-13T20:31:58.268Z,1.37
2018-06-13T20:34:26.461Z,1.60
2018-06-13T20:36:54.634Z,1.33
2018-06-13T20:39:22.879Z,1.40
2018-06-13T20:41:51.622Z,1.40
2018-06-13T20:44:19.945Z,1.43
2018-06-13T20:46:48.254Z,1.47
2018-06-13T20:49:17.072Z,1.20
2018-06-13T20:51:45.604Z,1.40
2018-06-13T20:54:15.209Z,1.40
2018-06-13T20:56:43.421Z,1.47
2018-06-13T20:59:11.599Z,1.80
2018-06-13T21:01:40.537Z,1.30
2018-06-13T21:04:08.763Z,1.57
2018-06-13T21:06:37.316Z,1.43
2018-06-13T21:09:07.826Z,1.30
2018-06-13T21:11:36.253Z,1.30
2018-06-13T21:14:04.925Z,1.60
2018-06-13T21:16:33.112Z,1.80
2018-06-13T21:19:01.813Z,1.53
2018-06-13T21:21:29.967Z,1.63
2018-06-13T21:23:58.533Z,1.80
2018-06-13T21:26:26.702Z,1.77
2018-06-13T21:28:54.982Z,1.70
2018-06-13T21:31:23.811Z,1.70
2018-06-13T21:33:52.280Z,1.73
2018-06-13T21:36:20.297Z,1.70
2018-06-13T21:38:49.014Z,1.70
2018-06-13T21:41:17.230Z,1.50
2018-06-13T21:43:45.449Z,1.60
2018-06-13T21:46:13.694Z,1.80
2018-06-13T21:48:42.046Z,1.50
2018-06-13T21:51:10.210Z,1.90
2018-06-13T21:53:38.669Z,2.20
2018-06-13T21:56:06.746Z,2.23
2018-06-13T21:58:34.962Z,2.00
2018-06-13T22:01:03.262Z,1.87
2018-06-13T22:03:31.513Z,2.00
2018-06-13T22:06:00.238Z,1.80
2018-06-13T22:08:28.946Z,2.30
2018-06-13T22:10:57.194Z,1.93
2018-06-13T22:13:25.469Z,2.30
2018-06-13T22:15:53.823Z,2.17
2018-06-13T22:18:22.162Z,2.50
2018-06-13T22:20:50.408Z,1.60
2018-06-13T22:23:18.741Z,2.30
2018-06-13T22:25:46.983Z,2.30
2018-06-13T22:28:15.378Z,2.10
2018-06-13T22:30:44.248Z,2.23
2018-06-13T22:33:12.693Z,1.70
2018-06-13T22:35:40.967Z,1.70
2018-06-13T22:38:09.572Z,1.93
2018-06-13T22:40:38.969Z,1.70
2018-06-13T22:43:07.814Z,2.00
2018-06-13T22:45:35.968Z,2.13
2018-06-13T22:48:04.700Z,1.83
2018-06-13T22:50:32.966Z,2.07
2018-06-13T22:53:01.362Z,1.83
2018-06-13T22:55:30.226Z,2.47
2018-06-13T22:57:58.902Z,2.37
2018-06-13T23:00:42.222Z,2.33
2018-06-13T23:03:10.410Z,2.50
2018-06-13T23:05:38.639Z,2.27
2018-06-13T23:08:06.880Z,2.00
2018-06-13T23:10:35.195Z,2.10
2018-06-13T23:13:04.005Z,2.30
2018-06-13T23:15:32.868Z,2.13
2018-06-13T23:18:01.163Z,1.50
2018-06-13T23:20:30.215Z,1.80
2018-06-13T23:22:58.746Z,1.50
2018-06-13T23:25:26.972Z,1.77
2018-06-13T23:27:55.242Z,1.87
2018-06-13T23:30:23.765Z,1.70
2018-06-13T23:32:51.989Z,1.57
2018-06-13T23:35:21.045Z,1.80
2018-06-13T23:37:49.411Z,1.83
2018-06-13T23:40:18.023Z,1.50
2018-06-13T23:42:46.215Z,1.50
2018-06-13T23:45:14.394Z,2.00
2018-06-13T23:47:42.807Z,1.73
2018-06-13T23:50:11.751Z,1.70
2018-06-13T23:52:40.743Z,1.85
2018-06-13T23:55:10.057Z,1.90
2018-06-13T23:57:38.437Z,2.03
